sensor_id;sensor_type;location;lat;lon;timestamp;pressure;altitude;pressure_sealevel;temperature;humidity
71974;BME280;59840;52.122;5.404;2023-05-11T00:00:36;101595.66;;;12.46;100.00
71974;BME280;59840;52.122;5.404;2023-05-11T00:03:03;101602.00;;;12.45;100.00
71974;BME280;59840;52.122;5.404;2023-05-11T00:05:29;101584.16;;;12.40;100.00
71974;BME280;59840;52.122;5.404;2023-05-11T00:07:56;101585.22;;;12.39;100.00
71974;BME280;59840;52.122;5.404;2023-05-11T00:10:22;101590.50;;;12.39;100.00
71974;BME280;59840;52.122;5.404;2023-05-11T00:12:49;101593.94;;;12.40;100.00
71974;BME280;59840;52.122;5.404;2023-05-11T00:15:15;101594.53;;;12.42;100.00
71974;BME280;59840;52.122;5.404;2023-05-11T00:17:42;101592.91;;;12.41;100.00
71974;BME280;59840;52.122;5.404;2023-05-11T00:20:09;101596.03;;;12.38;100.00
71974;BME280;59840;52.122;5.404;2023-05-11T00:22:37;101592.81;;;12.36;100.00
71974;BME280;59840;52.122;5.404;2023-05-11T00:25:05;101585.25;;;12.28;100.00
71974;BME280;59840;52.122;5.404;2023-05-11T00:27:32;101577.69;;;12.20;100.00
71974;BME280;59840;52.122;5.404;2023-05-11T00:29:58;101570.16;;;12.12;100.00
71974;BME280;59840;52.122;5.404;2023-05-11T00:32:25;101572.22;;;12.10;100.00
71974;BME280;59840;52.122;5.404;2023-05-11T00:34:51;101577.53;;;12.10;100.00
71974;BME280;59840;52.122;5.404;2023-05-11T00:37:18;101580.88;;;12.05;100.00
71974;BME280;59840;52.122;5.404;2023-05-11T00:39:44;101584.22;;;12.00;100.00
71974;BME280;59840;52.122;5.404;2023-05-11T00:42:11;101587.31;;;11.97;100.00
71974;BME280;59840;52.122;5.404;2023-05-11T00:44:37;101588.69;;;12.00;100.00
71974;BME280;59840;52.122;5.404;2023-05-11T00:47:04;101588.22;;;12.03;100.00
71974;BME280;59840;52.122;5.404;2023-05-11T00:49:31;101584.78;;;12.02;100.00
71974;BME280;59840;52.122;5.404;2023-05-11T00:51:58;101586.41;;;12.03;100.00
71974;BME280;59840;52.122;5.404;2023-05-11T00:54:28;101591.13;;;12.01;100.00
71974;BME280;59840;52.122;5.404;2023-05-11T00:56:55;101589.50;;;12.00;100.00
71974;BME280;59840;52.122;5.404;2023-05-11T00:59:22;101589.84;;;12.04;100.00
71974;BME280;59840;52.122;5.404;2023-05-11T01:01:49;101590.66;;;12.04;100.00
71974;BME280;59840;52.122;5.404;2023-05-11T01:04:15;101580.53;;;12.01;100.00
71974;BME280;59840;52.122;5.404;2023-05-11T01:15:31;101587.22;;;11.92;100.00
71974;BME280;59840;52.122;5.404;2023-05-11T01:18:19;101589.97;;;11.97;100.00
71974;BME280;59840;52.122;5.404;2023-05-11T01:20:52;101592.38;;;11.99;100.00
71974;BME280;59840;52.122;5.404;2023-05-11T01:31:17;101598.38;;;11.94;100.00
71974;BME280;59840;52.122;5.404;2023-05-11T01:33:57;101601.59;;;11.96;100.00
71974;BME280;59840;52.122;5.404;2023-05-11T01:36:33;101597.91;;;11.97;100.00
71974;BME280;59840;52.122;5.404;2023-05-11T01:39:06;101592.38;;;11.99;100.00
71974;BME280;59840;52.122;5.404;2023-05-11T01:41:34;101590.66;;;11.93;100.00
71974;BME280;59840;52.122;5.404;2023-05-11T01:44:06;101587.22;;;11.92;100.00
71974;BME280;59840;52.122;5.404;2023-05-11T01:46:35;101587.22;;;11.92;100.00
71974;BME280;59840;52.122;5.404;2023-05-11T01:49:05;101595.63;;;11.89;100.00
71974;BME280;59840;52.122;5.404;2023-05-11T01:51:36;101595.63;;;11.89;100.00
71974;BME280;59840;52.122;5.404;2023-05-11T01:54:07;101601.38;;;11.86;100.00
71974;BME280;59840;52.122;5.404;2023-05-11T01:56:36;101603.69;;;11.83;100.00
71974;BME280;59840;52.122;5.404;2023-05-11T01:59:03;101597.59;;;11.82;100.00
71974;BME280;59840;52.122;5.404;2023-05-11T02:01:32;101597.50;;;11.77;100.00
71974;BME280;59840;52.122;5.404;2023-05-11T02:04:02;101596.09;;;11.74;100.00
71974;BME280;59840;52.122;5.404;2023-05-11T02:06:31;101597.94;;;11.74;100.00
71974;BME280;59840;52.122;5.404;2023-05-11T02:09:00;101597.03;;;11.68;100.00
71974;BME280;59840;52.122;5.404;2023-05-11T02:11:28;101597.50;;;11.65;100.00
71974;BME280;59840;52.122;5.404;2023-05-11T02:13:56;101603.94;;;11.69;100.00
71974;BME280;59840;52.122;5.404;2023-05-11T02:16:24;101603.13;;;11.69;100.00
71974;BME280;59840;52.122;5.404;2023-05-11T02:18:54;101602.09;;;11.70;100.00
71974;BME280;59840;52.122;5.404;2023-05-11T02:21:23;101601.84;;;11.71;100.00
71974;BME280;59840;52.122;5.404;2023-05-11T02:23:51;101599.78;;;11.73;100.00
71974;BME280;59840;52.122;5.404;2023-05-11T02:26:18;101601.84;;;11.71;100.00
71974;BME280;59840;52.122;5.404;2023-05-11T02:28:45;101608.97;;;11.71;100.00
71974;BME280;59840;52.122;5.404;2023-05-11T02:31:16;101604.38;;;11.66;100.00
71974;BME280;59840;52.122;5.404;2023-05-11T02:33:47;101607.25;;;11.65;100.00
71974;BME280;59840;52.122;5.404;2023-05-11T02:36:20;101603.59;;;11.66;100.00
71974;BME280;59840;52.122;5.404;2023-05-11T02:38:49;101606.81;;;11.68;100.00
71974;BME280;59840;52.122;5.404;2023-05-11T02:41:23;101603.13;;;11.69;100.00
71974;BME280;59840;52.122;5.404;2023-05-11T02:43:53;101606.56;;;11.69;100.00
71974;BME280;59840;52.122;5.404;2023-05-11T02:46:25;101609.44;;;11.68;100.00
71974;BME280;59840;52.122;5.404;2023-05-11T02:48:57;101602.78;;;11.65;100.00
71974;BME280;59840;52.122;5.404;2023-05-11T02:51:32;101601.75;;;11.55;100.00
71974;BME280;59840;52.122;5.404;2023-05-11T02:54:00;101598.53;;;11.53;100.00
71974;BME280;59840;52.122;5.404;2023-05-11T02:56:28;101597.72;;;11.52;100.00
71974;BME280;59840;52.122;5.404;2023-05-11T02:58:55;101599.56;;;11.52;100.00
71974;BME280;59840;52.122;5.404;2023-05-11T03:01:21;101606.22;;;11.54;100.00
71974;BME280;59840;52.122;5.404;2023-05-11T03:03:49;101608.19;;;11.59;100.00
71974;BME280;59840;52.122;5.404;2023-05-11T03:06:16;101609.78;;;11.60;100.00
71974;BME280;59840;52.122;5.404;2023-05-11T03:08:42;101616.22;;;11.64;100.00
71974;BME280;59840;52.122;5.404;2023-05-11T03:11:09;101610.38;;;11.62;100.00
71974;BME280;59840;52.122;5.404;2023-05-11T03:13:38;101615.09;;;11.60;100.00
71974;BME280;59840;52.122;5.404;2023-05-11T03:16:04;101606.69;;;11.51;100.00
71974;BME280;59840;52.122;5.404;2023-05-11T03:18:32;101610.38;;;11.50;100.00
71974;BME280;59840;52.122;5.404;2023-05-11T03:20:59;101596.81;;;11.47;100.00
71974;BME280;59840;52.122;5.404;2023-05-11T03:23:29;101601.63;;;11.50;100.00
71974;BME280;59840;52.122;5.404;2023-05-11T03:25:57;101606.69;;;11.51;100.00
71974;BME280;59840;52.122;5.404;2023-05-11T03:28:24;101603.81;;;11.53;100.00
71974;BME280;59840;52.122;5.404;2023-05-11T03:30:52;101599.69;;;11.57;100.00
71974;BME280;59840;52.122;5.404;2023-05-11T03:33:19;101596.56;;;11.60;100.00
71974;BME280;59840;52.122;5.404;2023-05-11T03:35:48;101594.16;;;11.58;100.00
71974;BME280;59840;52.122;5.404;2023-05-11T03:38:16;101594.41;;;11.57;100.00
71974;BME280;59840;52.122;5.404;2023-05-11T03:40:45;101589.44;;;11.60;100.00
71974;BME280;59840;52.122;5.404;2023-05-11T03:43:15;101588.19;;;11.63;100.00
71974;BME280;59840;52.122;5.404;2023-05-11T03:45:44;101581.28;;;11.62;100.00
71974;BME280;59840;52.122;5.404;2023-05-11T03:48:13;101583.13;;;11.61;100.00
71974;BME280;59840;52.122;5.404;2023-05-11T03:50:42;101590.47;;;11.59;100.00
71974;BME280;59840;52.122;5.404;2023-05-11T03:53:10;101587.03;;;11.59;100.00
71974;BME280;59840;52.122;5.404;2023-05-11T03:55:37;101583.38;;;11.60;100.00
71974;BME280;59840;52.122;5.404;2023-05-11T03:58:08;101587.03;;;11.59;100.00
71974;BME280;59840;52.122;5.404;2023-05-11T04:00:41;101581.75;;;11.59;100.00
71974;BME280;59840;52.122;5.404;2023-05-11T04:03:08;101588.66;;;11.60;100.00
71974;BME280;59840;52.122;5.404;2023-05-11T04:05:34;101592.66;;;11.62;100.00
71974;BME280;59840;52.122;5.404;2023-05-11T04:08:01;101592.31;;;11.59;100.00
71974;BME280;59840;52.122;5.404;2023-05-11T04:10:29;101604.97;;;11.57;100.00
71974;BME280;59840;52.122;5.404;2023-05-11T04:12:56;101596.94;;;11.52;100.00
71974;BME280;59840;52.122;5.404;2023-05-11T04:15:22;101601.88;;;11.48;100.00
71974;BME280;59840;52.122;5.404;2023-05-11T04:17:49;101601.88;;;11.48;100.00
71974;BME280;59840;52.122;5.404;2023-05-11T04:20:15;101600.59;;;11.51;100.00
71974;BME280;59840;52.122;5.404;2023-05-11T04:22:42;101599.78;;;11.50;100.00
71974;BME280;59840;52.122;5.404;2023-05-11T04:25:09;101605.09;;;11.50;100.00
71974;BME280;59840;52.122;5.404;2023-05-11T04:27:35;101605.88;;;11.51;100.00
71974;BME280;59840;52.122;5.404;2023-05-11T04:30:02;101613.81;;;11.51;100.00
71974;BME280;59840;52.122;5.404;2023-05-11T04:32:28;101611.19;;;11.51;100.00
71974;BME280;59840;52.122;5.404;2023-05-11T04:34:55;101613.59;;;11.52;100.00
71974;BME280;59840;52.122;5.404;2023-05-11T04:37:22;101611.63;;;11.48;100.00
71974;BME280;59840;52.122;5.404;2023-05-11T04:39:48;101618.28;;;11.50;100.00
71974;BME280;59840;52.122;5.404;2023-05-11T04:42:15;101621.06;;;11.55;100.00
71974;BME280;59840;52.122;5.404;2023-05-11T04:44:41;101618.75;;;11.59;100.00
71974;BME280;59840;52.122;5.404;2023-05-11T04:47:08;101615.53;;;11.57;100.00
71974;BME280;59840;52.122;5.404;2023-05-11T04:49:35;101616.56;;;11.56;100.00
71974;BME280;59840;52.122;5.404;2023-05-11T04:52:01;101620.81;;;11.57;100.00
71974;BME280;59840;52.122;5.404;2023-05-11T04:54:28;101626.13;;;11.57;100.00
71974;BME280;59840;52.122;5.404;2023-05-11T04:56:56;101620.25;;;11.55;100.00
71974;BME280;59840;52.122;5.404;2023-05-11T04:59:23;101626.13;;;11.57;100.00
71974;BME280;59840;52.122;5.404;2023-05-11T05:01:49;101618.75;;;11.59;100.00
71974;BME280;59840;52.122;5.404;2023-05-11T05:04:16;101626.47;;;11.60;100.00
71974;BME280;59840;52.122;5.404;2023-05-11T05:06:43;101620.72;;;11.63;100.00
71974;BME280;59840;52.122;5.404;2023-05-11T05:09:09;101621.06;;;11.67;100.00
71974;BME280;59840;52.122;5.404;2023-05-11T05:11:36;101622.44;;;11.69;100.00
71974;BME280;59840;52.122;5.404;2023-05-11T05:14:03;101626.00;;;11.75;100.00
71974;BME280;59840;52.122;5.404;2023-05-11T05:16:29;101631.38;;;11.80;100.00
71974;BME280;59840;52.122;5.404;2023-05-11T05:18:58;101637.81;;;11.84;100.00
71974;BME280;59840;52.122;5.404;2023-05-11T05:21:24;101631.50;;;11.85;100.00
71974;BME280;59840;52.122;5.404;2023-05-11T05:23:51;101634.72;;;11.87;100.00
71974;BME280;59840;52.122;5.404;2023-05-11T05:26:17;101630.00;;;11.89;100.00
71974;BME280;59840;52.122;5.404;2023-05-11T05:28:44;101637.25;;;11.94;100.00
71974;BME280;59840;52.122;5.404;2023-05-11T05:31:10;101639.75;;;12.00;100.00
71974;BME280;59840;52.122;5.404;2023-05-11T05:33:37;101635.94;;;12.08;100.00
71974;BME280;59840;52.122;5.404;2023-05-11T05:36:03;101647.41;;;12.14;100.00
71974;BME280;59840;52.122;5.404;2023-05-11T05:38:30;101644.53;;;12.15;100.00
71974;BME280;59840;52.122;5.404;2023-05-11T05:40:57;101653.38;;;12.21;100.00
71974;BME280;59840;52.122;5.404;2023-05-11T05:43:24;101654.41;;;12.20;100.00
71974;BME280;59840;52.122;5.404;2023-05-11T05:45:50;101651.53;;;12.21;100.00
71974;BME280;59840;52.122;5.404;2023-05-11T05:48:17;101656.59;;;12.23;100.00
71974;BME280;59840;52.122;5.404;2023-05-11T05:50:44;101653.38;;;12.21;100.00
71974;BME280;59840;52.122;5.404;2023-05-11T05:53:10;101659.81;;;12.25;100.00
71974;BME280;59840;52.122;5.404;2023-05-11T05:55:37;101667.28;;;12.28;100.00
71974;BME280;59840;52.122;5.404;2023-05-11T05:58:03;101665.22;;;12.30;100.00
71974;BME280;59840;52.122;5.404;2023-05-11T06:00:30;101669.00;;;12.34;100.00
71974;BME280;59840;52.122;5.404;2023-05-11T06:02:57;101673.25;;;12.35;100.00
71974;BME280;59840;52.122;5.404;2023-05-11T06:05:24;101672.78;;;12.38;100.00
71974;BME280;59840;52.122;5.404;2023-05-11T06:07:51;101670.81;;;12.45;100.00
71974;BME280;59840;52.122;5.404;2023-05-11T06:10:35;101677.78;;;12.51;100.00
71974;BME280;59840;52.122;5.404;2023-05-11T06:13:02;101678.44;;;12.58;100.00
71974;BME280;59840;52.122;5.404;2023-05-11T06:15:28;101679.00;;;12.60;100.00
71974;BME280;59840;52.122;5.404;2023-05-11T06:17:55;101677.75;;;12.63;100.00
71974;BME280;59840;52.122;5.404;2023-05-11T06:20:22;101679.59;;;12.62;100.00
71974;BME280;59840;52.122;5.404;2023-05-11T06:22:49;101682.69;;;12.59;100.00
71974;BME280;59840;52.122;5.404;2023-05-11T06:25:16;101684.88;;;12.62;100.00
71974;BME280;59840;52.122;5.404;2023-05-11T06:27:42;101674.38;;;12.67;100.00
71974;BME280;59840;52.122;5.404;2023-05-11T06:30:09;101682.91;;;12.69;100.00
71974;BME280;59840;52.122;5.404;2023-05-11T06:32:36;101686.13;;;12.71;100.00
71974;BME280;59840;52.122;5.404;2023-05-11T06:35:02;101684.84;;;12.74;100.00
71974;BME280;59840;52.122;5.404;2023-05-11T06:37:29;101686.44;;;12.75;100.00
71974;BME280;59840;52.122;5.404;2023-05-11T06:39:57;101692.06;;;12.79;100.00
71974;BME280;59840;52.122;5.404;2023-05-11T06:42:23;101687.34;;;12.81;100.00
71974;BME280;59840;52.122;5.404;2023-05-11T06:44:50;101688.22;;;12.86;100.00
71974;BME280;59840;52.122;5.404;2023-05-11T06:47:17;101689.56;;;12.89;100.00
71974;BME280;59840;52.122;5.404;2023-05-11T06:49:49;101695.88;;;12.99;100.00
71974;BME280;59840;52.122;5.404;2023-05-11T06:52:16;101698.84;;;13.03;100.00
71974;BME280;59840;52.122;5.404;2023-05-11T06:54:43;101692.91;;;13.13;100.00
71974;BME280;59840;52.122;5.404;2023-05-11T06:57:09;101689.56;;;13.17;100.00
71974;BME280;59840;52.122;5.404;2023-05-11T06:59:39;101696.22;;;13.20;100.00
71974;BME280;59840;52.122;5.404;2023-05-11T07:02:05;101694.38;;;13.20;100.00
71974;BME280;59840;52.122;5.404;2023-05-11T07:04:32;101691.00;;;13.25;100.00
71974;BME280;59840;52.122;5.404;2023-05-11T07:06:58;101698.25;;;13.29;100.00
71974;BME280;59840;52.122;5.404;2023-05-11T07:09:25;101697.28;;;13.35;100.00
71974;BME280;59840;52.122;5.404;2023-05-11T07:11:51;101697.94;;;13.43;100.00
71974;BME280;59840;52.122;5.404;2023-05-11T07:14:18;101686.59;;;13.47;100.00
71974;BME280;59840;52.122;5.404;2023-05-11T07:16:44;101686.97;;;13.56;100.00
71974;BME280;59840;52.122;5.404;2023-05-11T07:19:11;101684.41;;;13.61;100.00
71974;BME280;59840;52.122;5.404;2023-05-11T07:21:38;101684.22;;;13.67;100.00
71974;BME280;59840;52.122;5.404;2023-05-11T07:24:05;101689.94;;;13.76;100.00
71974;BME280;59840;52.122;5.404;2023-05-11T07:26:31;101688.63;;;13.79;100.00
71974;BME280;59840;52.122;5.404;2023-05-11T07:28:58;101691.53;;;13.77;100.00
71974;BME280;59840;52.122;5.404;2023-05-11T07:31:24;101687.34;;;13.81;100.00
71974;BME280;59840;52.122;5.404;2023-05-11T07:33:51;101687.91;;;13.83;100.00
71974;BME280;59840;52.122;5.404;2023-05-11T07:36:18;101683.69;;;13.87;100.00
71974;BME280;59840;52.122;5.404;2023-05-11T07:38:45;101686.16;;;13.94;100.00
71974;BME280;59840;52.122;5.404;2023-05-11T07:41:11;101694.53;;;14.02;100.00
71974;BME280;59840;52.122;5.404;2023-05-11T07:43:38;101691.03;;;14.19;100.00
71974;BME280;59840;52.122;5.404;2023-05-11T07:46:05;101689.31;;;14.34;100.00
71974;BME280;59840;52.122;5.404;2023-05-11T07:48:31;101693.31;;;14.54;100.00
71974;BME280;59840;52.122;5.404;2023-05-11T07:50:58;101689.88;;;14.58;100.00
71974;BME280;59840;52.122;5.404;2023-05-11T07:53:25;101693.41;;;14.64;100.00
71974;BME280;59840;52.122;5.404;2023-05-11T07:55:51;101693.84;;;14.56;99.07
71974;BME280;59840;52.122;5.404;2023-05-11T07:58:18;101690.59;;;14.49;96.78
71974;BME280;59840;52.122;5.404;2023-05-11T08:00:44;101696.09;;;14.42;95.88
71974;BME280;59840;52.122;5.404;2023-05-11T08:03:11;101690.78;;;14.42;98.62
71974;BME280;59840;52.122;5.404;2023-05-11T08:05:38;101697.75;;;14.48;99.76
71974;BME280;59840;52.122;5.404;2023-05-11T08:08:05;101700.91;;;14.45;100.00
71974;BME280;59840;52.122;5.404;2023-05-11T08:10:31;101701.97;;;14.44;96.23
71974;BME280;59840;52.122;5.404;2023-05-11T08:12:58;101705.09;;;14.41;93.86
71974;BME280;59840;52.122;5.404;2023-05-11T08:15:25;101703.47;;;14.40;92.96
71974;BME280;59840;52.122;5.404;2023-05-11T08:17:52;101701.72;;;14.46;90.89
71974;BME280;59840;52.122;5.404;2023-05-11T08:20:18;101703.69;;;14.55;90.32
71974;BME280;59840;52.122;5.404;2023-05-11T08:22:45;101704.81;;;14.64;90.55
71974;BME280;59840;52.122;5.404;2023-05-11T08:25:12;101704.88;;;14.69;90.48
71974;BME280;59840;52.122;5.404;2023-05-11T08:27:39;101707.91;;;14.78;90.94
71974;BME280;59840;52.122;5.404;2023-05-11T08:30:06;101701.63;;;14.89;89.77
71974;BME280;59840;52.122;5.404;2023-05-11T08:32:37;101701.16;;;14.97;90.57
71974;BME280;59840;52.122;5.404;2023-05-11T08:35:24;101701.41;;;14.96;88.99
71974;BME280;59840;52.122;5.404;2023-05-11T08:37:50;101700.94;;;15.04;90.21
71974;BME280;59840;52.122;5.404;2023-05-11T08:40:19;101698.59;;;15.07;89.80
71974;BME280;59840;52.122;5.404;2023-05-11T08:42:47;101699.50;;;15.18;90.97
71974;BME280;59840;52.122;5.404;2023-05-11T08:45:15;101697.69;;;15.29;90.31
71974;BME280;59840;52.122;5.404;2023-05-11T08:47:44;101700.91;;;15.31;89.98
71974;BME280;59840;52.122;5.404;2023-05-11T08:50:10;101697.53;;;15.40;91.84
71974;BME280;59840;52.122;5.404;2023-05-11T08:52:37;101701.31;;;15.50;89.70
71974;BME280;59840;52.122;5.404;2023-05-11T08:55:04;101703.00;;;15.61;88.53
71974;BME280;59840;52.122;5.404;2023-05-11T08:57:32;101701.22;;;15.71;88.48
71974;BME280;59840;52.122;5.404;2023-05-11T09:00:02;101705.97;;;15.69;87.38
71974;BME280;59840;52.122;5.404;2023-05-11T09:02:30;101699.94;;;15.79;87.47
71974;BME280;59840;52.122;5.404;2023-05-11T09:04:58;101696.28;;;15.90;87.82
71974;BME280;59840;52.122;5.404;2023-05-11T09:07:25;101694.94;;;15.88;85.25
71974;BME280;59840;52.122;5.404;2023-05-11T09:09:53;101693.56;;;15.85;85.73
71974;BME280;59840;52.122;5.404;2023-05-11T09:12:20;101690.38;;;15.83;87.55
71974;BME280;59840;52.122;5.404;2023-05-11T09:14:51;101695.94;;;15.82;85.83
71974;BME280;59840;52.122;5.404;2023-05-11T09:17:18;101700.75;;;15.85;87.08
71974;BME280;59840;52.122;5.404;2023-05-11T09:22:25;101691.81;;;16.11;86.44
71974;BME280;59840;52.122;5.404;2023-05-11T09:24:56;101693.75;;;16.31;86.63
71974;BME280;59840;52.122;5.404;2023-05-11T09:27:23;101692.75;;;16.47;81.58
71974;BME280;59840;52.122;5.404;2023-05-11T09:29:52;101697.31;;;16.62;85.21
71974;BME280;59840;52.122;5.404;2023-05-11T09:32:19;101690.94;;;16.63;81.00
71974;BME280;59840;52.122;5.404;2023-05-11T09:34:46;101688.50;;;16.51;77.29
71974;BME280;59840;52.122;5.404;2023-05-11T09:37:17;101698.94;;;16.63;81.06
71974;BME280;59840;52.122;5.404;2023-05-11T09:39:43;101691.78;;;16.79;81.42
71974;BME280;59840;52.122;5.404;2023-05-11T09:42:30;101700.06;;;16.87;81.85
71974;BME280;59840;52.122;5.404;2023-05-11T09:44:57;101689.66;;;16.86;82.68
71974;BME280;59840;52.122;5.404;2023-05-11T09:47:23;101692.00;;;16.67;86.50
71974;BME280;59840;52.122;5.404;2023-05-11T09:49:50;101697.56;;;16.55;79.58
71974;BME280;59840;52.122;5.404;2023-05-11T09:52:17;101682.91;;;16.53;83.86
71974;BME280;59840;52.122;5.404;2023-05-11T09:54:49;101691.16;;;16.46;83.82
71974;BME280;59840;52.122;5.404;2023-05-11T09:57:27;101690.84;;;16.32;82.60
71974;BME280;59840;52.122;5.404;2023-05-11T09:59:55;101690.00;;;16.17;81.14
71974;BME280;59840;52.122;5.404;2023-05-11T10:02:26;101688.66;;;16.14;85.38
71974;BME280;59840;52.122;5.404;2023-05-11T10:04:58;101683.31;;;16.14;83.21
71974;BME280;59840;52.122;5.404;2023-05-11T10:07:33;101688.66;;;16.14;81.34
71974;BME280;59840;52.122;5.404;2023-05-11T10:10:02;101698.50;;;16.14;81.24
71974;BME280;59840;52.122;5.404;2023-05-11T10:12:30;101693.16;;;16.08;83.97
71974;BME280;59840;52.122;5.404;2023-05-11T10:15:07;101689.91;;;16.01;83.92
71974;BME280;59840;52.122;5.404;2023-05-11T10:17:35;101693.34;;;15.97;84.69
71974;BME280;59840;52.122;5.404;2023-05-11T10:20:04;101698.91;;;15.85;84.94
71974;BME280;59840;52.122;5.404;2023-05-11T10:22:31;101703.03;;;15.66;87.04
71974;BME280;59840;52.122;5.404;2023-05-11T10:24:58;101702.41;;;15.54;88.06
71974;BME280;59840;52.122;5.404;2023-05-11T10:27:25;101699.13;;;15.41;88.63
71974;BME280;59840;52.122;5.404;2023-05-11T10:29:52;101696.13;;;15.33;88.49
71974;BME280;59840;52.122;5.404;2023-05-11T10:32:19;101703.78;;;15.24;88.63
71974;BME280;59840;52.122;5.404;2023-05-11T10:34:47;101702.91;;;15.14;90.20
71974;BME280;59840;52.122;5.404;2023-05-11T10:37:14;101699.94;;;15.10;89.69
71974;BME280;59840;52.122;5.404;2023-05-11T10:39:43;101698.28;;;15.04;90.28
71974;BME280;59840;52.122;5.404;2023-05-11T10:45:25;101704.81;;;14.91;91.96
71974;BME280;59840;52.122;5.404;2023-05-11T10:51:03;101715.06;;;14.56;94.83
71974;BME280;59840;52.122;5.404;2023-05-11T10:57:02;101726.03;;;13.77;100.00
71974;BME280;59840;52.122;5.404;2023-05-11T10:59:43;101743.56;;;13.45;100.00
71974;BME280;59840;52.122;5.404;2023-05-11T11:02:10;101741.13;;;13.26;100.00
71974;BME280;59840;52.122;5.404;2023-05-11T11:04:50;101734.88;;;13.16;100.00
71974;BME280;59840;52.122;5.404;2023-05-11T11:07:17;101728.22;;;13.01;100.00
71974;BME280;59840;52.122;5.404;2023-05-11T11:12:16;101725.00;;;12.99;100.00
71974;BME280;59840;52.122;5.404;2023-05-11T11:15:03;101737.44;;;12.99;100.00
71974;BME280;59840;52.122;5.404;2023-05-11T11:17:32;101737.69;;;12.97;100.00
71974;BME280;59840;52.122;5.404;2023-05-11T11:25:05;101726.19;;;12.92;100.00
71974;BME280;59840;52.122;5.404;2023-05-11T11:30:22;101720.50;;;13.00;100.00
71974;BME280;59840;52.122;5.404;2023-05-11T11:32:54;101723.97;;;13.00;100.00
71974;BME280;59840;52.122;5.404;2023-05-11T11:38:10;101713.69;;;13.04;100.00
71974;BME280;59840;52.122;5.404;2023-05-11T11:40:45;101706.66;;;13.09;100.00
71974;BME280;59840;52.122;5.404;2023-05-11T11:43:19;101715.00;;;13.18;100.00
71974;BME280;59840;52.122;5.404;2023-05-11T11:45:59;101720.41;;;13.23;100.00
71974;BME280;59840;52.122;5.404;2023-05-11T11:48:33;101721.44;;;13.22;100.00
71974;BME280;59840;52.122;5.404;2023-05-11T11:51:09;101724.09;;;13.22;100.00
71974;BME280;59840;52.122;5.404;2023-05-11T12:01:14;101737.25;;;13.17;100.00
71974;BME280;59840;52.122;5.404;2023-05-11T12:03:43;101744.63;;;13.15;100.00
71974;BME280;59840;52.122;5.404;2023-05-11T12:06:11;101727.13;;;13.14;100.00
71974;BME280;59840;52.122;5.404;2023-05-11T12:08:39;101735.25;;;13.24;100.00
71974;BME280;59840;52.122;5.404;2023-05-11T12:11:06;101739.19;;;13.22;100.00
71974;BME280;59840;52.122;5.404;2023-05-11T12:13:34;101745.78;;;13.19;100.00
71974;BME280;59840;52.122;5.404;2023-05-11T12:16:08;101747.94;;;13.22;100.00
71974;BME280;59840;52.122;5.404;2023-05-11T12:18:35;101746.66;;;13.25;100.00
71974;BME280;59840;52.122;5.404;2023-05-11T12:21:01;101729.66;;;13.37;100.00
71974;BME280;59840;52.122;5.404;2023-05-11T12:23:29;101729.25;;;13.46;100.00
71974;BME280;59840;52.122;5.404;2023-05-11T12:26:02;101722.97;;;13.52;100.00
71974;BME280;59840;52.122;5.404;2023-05-11T12:28:29;101717.38;;;13.48;100.00
71974;BME280;59840;52.122;5.404;2023-05-11T12:30:57;101720.31;;;13.52;100.00
71974;BME280;59840;52.122;5.404;2023-05-11T12:33:26;101719.47;;;13.46;100.00
71974;BME280;59840;52.122;5.404;2023-05-11T12:35:55;101724.56;;;13.53;100.00
71974;BME280;59840;52.122;5.404;2023-05-11T12:38:21;101720.06;;;13.53;100.00
71974;BME280;59840;52.122;5.404;2023-05-11T12:40:49;101718.31;;;13.59;100.00
71974;BME280;59840;52.122;5.404;2023-05-11T12:43:20;101726.44;;;13.69;100.00
71974;BME280;59840;52.122;5.404;2023-05-11T12:45:47;101723.94;;;13.79;100.00
71974;BME280;59840;52.122;5.404;2023-05-11T12:48:14;101726.09;;;13.82;100.00
71974;BME280;59840;52.122;5.404;2023-05-11T12:50:42;101720.34;;;13.90;100.00
71974;BME280;59840;52.122;5.404;2023-05-11T12:53:17;101724.06;;;13.89;100.00
71974;BME280;59840;52.122;5.404;2023-05-11T12:55:56;101723.25;;;13.89;100.00
71974;BME280;59840;52.122;5.404;2023-05-11T12:58:23;101724.06;;;13.89;100.00
71974;BME280;59840;52.122;5.404;2023-05-11T13:03:24;101722.41;;;14.05;100.00
71974;BME280;59840;52.122;5.404;2023-05-11T13:05:51;101720.56;;;14.05;100.00
71974;BME280;59840;52.122;5.404;2023-05-11T13:08:29;101723.22;;;14.05;100.00
71974;BME280;59840;52.122;5.404;2023-05-11T13:10:55;101729.66;;;14.09;100.00
71974;BME280;59840;52.122;5.404;2023-05-11T13:13:26;101722.31;;;14.17;100.00
71974;BME280;59840;52.122;5.404;2023-05-11T13:15:53;101720.25;;;14.24;100.00
71974;BME280;59840;52.122;5.404;2023-05-11T13:18:20;101722.66;;;14.25;100.00
71974;BME280;59840;52.122;5.404;2023-05-11T13:21:04;101722.25;;;14.33;100.00
71974;BME280;59840;52.122;5.404;2023-05-11T13:23:30;101720.94;;;14.36;100.00
71974;BME280;59840;52.122;5.404;2023-05-11T13:25:58;101720.13;;;14.35;100.00
71974;BME280;59840;52.122;5.404;2023-05-11T13:28:24;101716.19;;;14.38;100.00
71974;BME280;59840;52.122;5.404;2023-05-11T13:30:58;101716.25;;;14.21;100.00
71974;BME280;59840;52.122;5.404;2023-05-11T13:33:28;101724.09;;;14.11;100.00
71974;BME280;59840;52.122;5.404;2023-05-11T13:35:54;101717.34;;;14.03;100.00
71974;BME280;59840;52.122;5.404;2023-05-11T13:38:21;101720.97;;;13.97;100.00
71974;BME280;59840;52.122;5.404;2023-05-11T13:40:47;101715.53;;;13.87;100.00